CDT,Max TemperatureF,Mean TemperatureF,Min TemperatureF,Max Dew PointF,MeanDew PointF,Min DewpointF,Max Humidity, Mean Humidity, Min Humidity, Max Sea Level PressureIn, Mean Sea Level PressureIn, Min Sea Level PressureIn, Max VisibilityMiles, Mean VisibilityMiles, Min VisibilityMiles, Max Wind SpeedMPH, Mean Wind SpeedMPH, Max Gust SpeedMPH,PrecipitationIn, CloudCover, Events, WindDirDegrees
2012-6-1,73,65,57,52,47,42,81,58,34,29.95,29.90,29.82,10,10,10,17,10,24,0.00,4,,320
2012-6-2,82,67,52,60,51,42,89,58,30,29.98,29.91,29.83,10,10,10,13,3,20,0.00,1,,222
2012-6-3,90,74,60,67,61,49,90,69,27,29.92,29.87,29.79,10,9,2,15,3,17,0.15,2,Rain-Thunderstorm,208
2012-6-4,91,80,68,73,68,66,94,79,45,29.87,29.79,29.70,10,7,2,16,4,22,0.01,4,Thunderstorm,234
2012-6-5,87,76,64,70,56,48,88,56,28,29.90,29.83,29.76,10,10,10,14,10,24,0.00,2,,35
2012-6-6,82,72,61,56,50,44,78,50,28,30.03,29.96,29.90,10,10,7,15,6,21,0.00,0,,40
2012-6-7,82,68,55,58,51,47,86,56,29,30.08,30.05,30.01,10,10,10,12,3,18,0.00,0,,50
2012-6-8,88,72,55,60,53,49,87,54,28,30.08,30.00,29.92,10,10,10,12,3,20,0.00,0,,68
2012-6-9,91,77,64,63,59,54,84,54,30,29.96,29.90,29.83,10,10,10,15,4,24,0.00,2,,163
2012-6-10,86,76,69,70,66,60,91,74,58,29.94,29.89,29.85,10,9,2,15,5,20,0.01,6,Rain,136
2012-6-11,88,78,68,74,68,64,94,83,62,30.03,29.93,29.83,10,8,0,44,7,64,0.83,5,Fog-Rain-Thunderstorm,273
2012-6-12,88,76,64,66,60,51,93,63,29,30.09,30.02,29.96,10,10,10,12,4,,0.00,0,,2
2012-6-13,86,72,59,62,55,49,87,59,31,30.10,30.04,29.99,10,10,10,7,2,,0.00,0,,40
2012-6-14,90,75,60,66,59,55,93,61,32,30.05,30.00,29.94,10,10,9,7,1,,0.00,0,,69
2012-6-15,93,78,63,67,61,54,90,61,29,30.04,30.00,29.96,10,10,6,14,3,16,0.00,0,,170
2012-6-16,93,80,68,71,67,62,90,65,47,30.11,30.03,29.96,10,10,9,14,6,21,0.00,0,,198
2012-6-17,90,80,69,73,68,65,90,70,48,30.05,29.96,29.87,10,10,9,17,8,24,0.24,1,Rain,210
2012-6-18,91,80,70,68,66,64,87,62,41,29.92,29.89,29.85,10,10,10,17,7,24,0.00,0,,192
2012-6-19,91,81,72,70,64,57,81,58,35,30.03,29.99,29.92,10,10,6,15,8,23,0.00,1,,182
2012-6-20,93,80,66,70,65,62,87,60,37,30.07,30.02,29.97,10,10,8,14,6,16,0.00,1,,192
2012-6-21,93,80,68,75,68,62,93,71,37,30.05,29.98,29.92,10,8,2,15,3,,0.19,2,Rain,198
2012-6-22,91,82,71,70,63,56,91,58,30,30.00,29.95,29.89,10,10,7,12,4,,0.00,1,,43
2012-6-23,93,78,64,65,60,57,84,55,32,30.00,29.95,29.90,10,10,10,9,3,,0.00,0,,78
2012-6-24,98,80,64,68,60,54,90,55,23,29.97,29.92,29.86,10,10,8,8,2,,0.00,0,,93
2012-6-25,100,84,69,68,65,62,84,51,30,29.87,29.83,29.77,10,10,6,13,3,17,0.00,1,,40
2012-6-26,90,78,63,59,51,46,78,41,22,29.94,29.89,29.85,10,10,10,13,7,18,0.00,0,,48
2012-6-27,93,74,55,59,55,50,87,51,24,30.00,29.94,29.90,10,10,10,8,2,,0.00,0,,193
2012-6-28,100,82,63,71,65,59,90,57,30,29.98,29.93,29.90,10,10,9,14,4,,0.00,0,,201
2012-6-29,105,88,71,70,66,63,87,49,26,29.94,29.87,29.80,10,9,4,12,6,,0.00,0,,213
2012-6-30,102,90,77,72,67,63,82,50,28,29.88,29.84,29.80,10,9,5,16,7,20,0.00,0,,216